sensor_id;sensor_type;location;lat;lon;timestamp;P1;durP1;ratioP1;P2;durP2;ratioP2
9188;SDS011;34313;50.780;6.084;2023-03-23T00:00:44;4.00;;;3.13;;
9188;SDS011;34313;50.780;6.084;2023-03-23T00:03:10;4.60;;;2.47;;
9188;SDS011;34313;50.780;6.084;2023-03-23T00:05:35;3.97;;;3.00;;
9188;SDS011;34313;50.780;6.084;2023-03-23T00:08:02;2.90;;;2.53;;
9188;SDS011;34313;50.780;6.084;2023-03-23T00:10:28;5.43;;;2.63;;
9188;SDS011;34313;50.780;6.084;2023-03-23T00:12:58;7.60;;;3.90;;
9188;SDS011;34313;50.780;6.084;2023-03-23T00:15:27;4.97;;;2.83;;
9188;SDS011;34313;50.780;6.084;2023-03-23T00:17:55;3.10;;;2.67;;
9188;SDS011;34313;50.780;6.084;2023-03-23T00:20:28;3.33;;;2.70;;
9188;SDS011;34313;50.780;6.084;2023-03-23T00:23:04;3.83;;;2.80;;
9188;SDS011;34313;50.780;6.084;2023-03-23T00:25:31;4.60;;;2.67;;
9188;SDS011;34313;50.780;6.084;2023-03-23T00:27:57;5.77;;;3.00;;
9188;SDS011;34313;50.780;6.084;2023-03-23T00:30:22;4.60;;;3.00;;
9188;SDS011;34313;50.780;6.084;2023-03-23T00:32:47;4.43;;;2.77;;
9188;SDS011;34313;50.780;6.084;2023-03-23T00:35:13;3.40;;;2.80;;
9188;SDS011;34313;50.780;6.084;2023-03-23T00:37:39;8.63;;;2.87;;
9188;SDS011;34313;50.780;6.084;2023-03-23T00:40:05;3.83;;;2.70;;
9188;SDS011;34313;50.780;6.084;2023-03-23T00:42:34;3.53;;;2.80;;
9188;SDS011;34313;50.780;6.084;2023-03-23T00:45:02;3.90;;;3.13;;
9188;SDS011;34313;50.780;6.084;2023-03-23T00:47:35;3.83;;;2.60;;
9188;SDS011;34313;50.780;6.084;2023-03-23T00:50:05;5.23;;;2.90;;
9188;SDS011;34313;50.780;6.084;2023-03-23T00:52:31;5.30;;;3.20;;
9188;SDS011;34313;50.780;6.084;2023-03-23T00:54:56;4.80;;;3.10;;
9188;SDS011;34313;50.780;6.084;2023-03-23T00:57:22;4.30;;;3.30;;
9188;SDS011;34313;50.780;6.084;2023-03-23T00:59:49;3.40;;;3.00;;
9188;SDS011;34313;50.780;6.084;2023-03-23T01:02:15;5.60;;;2.97;;
9188;SDS011;34313;50.780;6.084;2023-03-23T01:04:41;4.03;;;2.87;;
9188;SDS011;34313;50.780;6.084;2023-03-23T01:07:09;3.13;;;2.83;;
9188;SDS011;34313;50.780;6.084;2023-03-23T01:09:37;7.20;;;3.43;;
9188;SDS011;34313;50.780;6.084;2023-03-23T01:12:05;3.83;;;3.20;;
9188;SDS011;34313;50.780;6.084;2023-03-23T01:14:31;6.00;;;2.80;;
9188;SDS011;34313;50.780;6.084;2023-03-23T01:16:56;7.23;;;3.53;;
9188;SDS011;34313;50.780;6.084;2023-03-23T01:19:22;5.87;;;2.80;;
9188;SDS011;34313;50.780;6.084;2023-03-23T01:21:47;4.00;;;3.30;;
9188;SDS011;34313;50.780;6.084;2023-03-23T01:24:12;6.00;;;3.07;;
9188;SDS011;34313;50.780;6.084;2023-03-23T01:26:38;6.73;;;2.83;;
9188;SDS011;34313;50.780;6.084;2023-03-23T01:29:03;4.20;;;2.70;;
9188;SDS011;34313;50.780;6.084;2023-03-23T01:31:29;3.27;;;2.87;;
9188;SDS011;34313;50.780;6.084;2023-03-23T01:33:54;5.27;;;3.13;;
9188;SDS011;34313;50.780;6.084;2023-03-23T01:36:22;4.23;;;2.93;;
9188;SDS011;34313;50.780;6.084;2023-03-23T01:38:53;3.17;;;2.80;;
9188;SDS011;34313;50.780;6.084;2023-03-23T01:41:20;4.93;;;2.90;;
9188;SDS011;34313;50.780;6.084;2023-03-23T01:43:56;2.47;;;2.27;;
9188;SDS011;34313;50.780;6.084;2023-03-23T01:46:26;5.47;;;2.20;;
9188;SDS011;34313;50.780;6.084;2023-03-23T01:48:54;4.03;;;2.60;;
9188;SDS011;34313;50.780;6.084;2023-03-23T01:51:22;4.13;;;2.50;;
9188;SDS011;34313;50.780;6.084;2023-03-23T01:53:56;4.30;;;2.37;;
9188;SDS011;34313;50.780;6.084;2023-03-23T01:56:26;2.50;;;2.10;;
9188;SDS011;34313;50.780;6.084;2023-03-23T01:58:58;2.40;;;2.20;;
9188;SDS011;34313;50.780;6.084;2023-03-23T02:01:23;2.83;;;2.30;;
9188;SDS011;34313;50.780;6.084;2023-03-23T02:03:50;2.23;;;2.00;;
9188;SDS011;34313;50.780;6.084;2023-03-23T02:06:17;2.60;;;2.07;;
9188;SDS011;34313;50.780;6.084;2023-03-23T02:08:43;3.10;;;2.33;;
9188;SDS011;34313;50.780;6.084;2023-03-23T02:11:13;2.13;;;1.70;;
9188;SDS011;34313;50.780;6.084;2023-03-23T02:13:41;2.87;;;2.20;;
9188;SDS011;34313;50.780;6.084;2023-03-23T02:16:09;2.80;;;2.10;;
9188;SDS011;34313;50.780;6.084;2023-03-23T02:18:44;2.80;;;2.20;;
9188;SDS011;34313;50.780;6.084;2023-03-23T02:24:13;3.37;;;2.47;;
9188;SDS011;34313;50.780;6.084;2023-03-23T02:26:57;3.77;;;2.10;;
9188;SDS011;34313;50.780;6.084;2023-03-23T02:29:44;4.70;;;2.20;;
9188;SDS011;34313;50.780;6.084;2023-03-23T02:34:49;1.83;;;1.70;;
9188;SDS011;34313;50.780;6.084;2023-03-23T02:37:27;3.10;;;2.10;;
9188;SDS011;34313;50.780;6.084;2023-03-23T02:40:39;2.40;;;1.90;;
9188;SDS011;34313;50.780;6.084;2023-03-23T02:43:07;3.17;;;2.20;;
9188;SDS011;34313;50.780;6.084;2023-03-23T02:45:36;2.73;;;2.10;;
9188;SDS011;34313;50.780;6.084;2023-03-23T02:48:03;3.30;;;1.90;;
9188;SDS011;34313;50.780;6.084;2023-03-23T02:50:31;2.47;;;2.27;;
9188;SDS011;34313;50.780;6.084;2023-03-23T02:52:58;3.40;;;1.80;;
9188;SDS011;34313;50.780;6.084;2023-03-23T02:55:25;3.10;;;1.77;;
9188;SDS011;34313;50.780;6.084;2023-03-23T02:57:53;3.60;;;1.77;;
9188;SDS011;34313;50.780;6.084;2023-03-23T03:00:20;3.57;;;2.20;;
9188;SDS011;34313;50.780;6.084;2023-03-23T03:02:50;3.57;;;2.40;;
9188;SDS011;34313;50.780;6.084;2023-03-23T03:10:53;4.63;;;1.93;;
9188;SDS011;34313;50.780;6.084;2023-03-23T03:19:05;2.97;;;2.10;;
9188;SDS011;34313;50.780;6.084;2023-03-23T03:21:39;3.47;;;2.90;;
9188;SDS011;34313;50.780;6.084;2023-03-23T03:24:07;3.33;;;2.23;;
9188;SDS011;34313;50.780;6.084;2023-03-23T03:26:36;3.33;;;2.70;;
9188;SDS011;34313;50.780;6.084;2023-03-23T03:29:04;2.80;;;2.40;;
9188;SDS011;34313;50.780;6.084;2023-03-23T03:31:36;2.87;;;2.60;;
9188;SDS011;34313;50.780;6.084;2023-03-23T03:34:04;4.47;;;2.40;;
9188;SDS011;34313;50.780;6.084;2023-03-23T03:36:33;2.93;;;2.63;;
9188;SDS011;34313;50.780;6.084;2023-03-23T03:39:00;2.70;;;2.33;;
9188;SDS011;34313;50.780;6.084;2023-03-23T03:41:30;3.97;;;3.37;;
9188;SDS011;34313;50.780;6.084;2023-03-23T03:43:55;4.87;;;3.73;;
9188;SDS011;34313;50.780;6.084;2023-03-23T03:46:20;2.90;;;2.63;;
9188;SDS011;34313;50.780;6.084;2023-03-23T03:48:46;4.47;;;3.00;;
9188;SDS011;34313;50.780;6.084;2023-03-23T03:51:11;3.13;;;2.60;;
9188;SDS011;34313;50.780;6.084;2023-03-23T03:53:36;2.97;;;2.67;;
9188;SDS011;34313;50.780;6.084;2023-03-23T03:56:02;4.67;;;2.67;;
9188;SDS011;34313;50.780;6.084;2023-03-23T03:58:27;3.13;;;2.53;;
9188;SDS011;34313;50.780;6.084;2023-03-23T04:00:59;3.10;;;2.40;;
9188;SDS011;34313;50.780;6.084;2023-03-23T04:03:25;4.20;;;2.80;;
9188;SDS011;34313;50.780;6.084;2023-03-23T04:05:52;3.63;;;3.03;;
9188;SDS011;34313;50.780;6.084;2023-03-23T04:08:20;4.23;;;2.77;;
9188;SDS011;34313;50.780;6.084;2023-03-23T04:10:47;3.73;;;3.13;;
9188;SDS011;34313;50.780;6.084;2023-03-23T04:13:12;3.53;;;2.13;;
9188;SDS011;34313;50.780;6.084;2023-03-23T04:15:38;6.80;;;2.60;;
9188;SDS011;34313;50.780;6.084;2023-03-23T04:18:04;2.40;;;2.20;;
9188;SDS011;34313;50.780;6.084;2023-03-23T04:20:30;3.57;;;2.50;;
9188;SDS011;34313;50.780;6.084;2023-03-23T04:22:56;8.30;;;2.97;;
9188;SDS011;34313;50.780;6.084;2023-03-23T04:25:21;3.00;;;2.60;;
9188;SDS011;34313;50.780;6.084;2023-03-23T04:27:47;2.67;;;2.47;;
9188;SDS011;34313;50.780;6.084;2023-03-23T04:30:17;3.60;;;3.20;;
9188;SDS011;34313;50.780;6.084;2023-03-23T04:32:44;6.77;;;2.70;;
9188;SDS011;34313;50.780;6.084;2023-03-23T04:35:11;2.90;;;2.50;;
9188;SDS011;34313;50.780;6.084;2023-03-23T04:37:39;4.10;;;2.80;;
9188;SDS011;34313;50.780;6.084;2023-03-23T04:40:06;4.17;;;2.57;;
9188;SDS011;34313;50.780;6.084;2023-03-23T04:42:36;4.40;;;2.70;;
9188;SDS011;34313;50.780;6.084;2023-03-23T04:45:03;3.33;;;2.40;;
9188;SDS011;34313;50.780;6.084;2023-03-23T04:47:31;3.67;;;2.40;;
9188;SDS011;34313;50.780;6.084;2023-03-23T04:49:59;3.33;;;2.73;;
9188;SDS011;34313;50.780;6.084;2023-03-23T04:52:25;3.23;;;2.43;;
9188;SDS011;34313;50.780;6.084;2023-03-23T04:54:50;5.23;;;2.80;;
9188;SDS011;34313;50.780;6.084;2023-03-23T04:57:17;2.77;;;2.30;;
9188;SDS011;34313;50.780;6.084;2023-03-23T04:59:43;3.50;;;3.10;;
9188;SDS011;34313;50.780;6.084;2023-03-23T05:02:09;4.37;;;2.80;;
9188;SDS011;34313;50.780;6.084;2023-03-23T05:04:36;3.90;;;2.40;;
9188;SDS011;34313;50.780;6.084;2023-03-23T05:07:02;6.60;;;2.50;;
9188;SDS011;34313;50.780;6.084;2023-03-23T05:09:28;4.23;;;2.50;;
9188;SDS011;34313;50.780;6.084;2023-03-23T05:11:53;4.67;;;2.33;;
9188;SDS011;34313;50.780;6.084;2023-03-23T05:14:18;5.03;;;2.10;;
9188;SDS011;34313;50.780;6.084;2023-03-23T05:16:44;7.23;;;2.83;;
9188;SDS011;34313;50.780;6.084;2023-03-23T05:19:13;3.30;;;1.97;;
9188;SDS011;34313;50.780;6.084;2023-03-23T05:21:38;5.77;;;2.63;;
9188;SDS011;34313;50.780;6.084;2023-03-23T05:24:04;3.57;;;2.40;;
9188;SDS011;34313;50.780;6.084;2023-03-23T05:26:30;3.23;;;2.57;;
9188;SDS011;34313;50.780;6.084;2023-03-23T05:28:55;5.57;;;2.10;;
9188;SDS011;34313;50.780;6.084;2023-03-23T05:31:21;2.83;;;1.80;;
9188;SDS011;34313;50.780;6.084;2023-03-23T05:33:47;5.10;;;2.30;;
9188;SDS011;34313;50.780;6.084;2023-03-23T05:36:12;3.40;;;1.90;;
9188;SDS011;34313;50.780;6.084;2023-03-23T05:38:39;2.43;;;2.10;;
9188;SDS011;34313;50.780;6.084;2023-03-23T05:41:10;5.40;;;2.33;;
9188;SDS011;34313;50.780;6.084;2023-03-23T05:43:36;6.27;;;2.00;;
9188;SDS011;34313;50.780;6.084;2023-03-23T05:46:01;4.70;;;2.60;;
9188;SDS011;34313;50.780;6.084;2023-03-23T05:48:27;2.47;;;1.90;;
9188;SDS011;34313;50.780;6.084;2023-03-23T05:50:53;5.03;;;2.70;;
9188;SDS011;34313;50.780;6.084;2023-03-23T05:53:18;3.50;;;2.60;;
9188;SDS011;34313;50.780;6.084;2023-03-23T05:55:44;3.27;;;2.43;;
9188;SDS011;34313;50.780;6.084;2023-03-23T05:58:10;6.83;;;2.23;;
9188;SDS011;34313;50.780;6.084;2023-03-23T06:00:35;4.80;;;2.30;;
9188;SDS011;34313;50.780;6.084;2023-03-23T06:03:01;2.63;;;1.80;;
9188;SDS011;34313;50.780;6.084;2023-03-23T06:05:27;7.50;;;2.13;;
9188;SDS011;34313;50.780;6.084;2023-03-23T06:07:54;4.63;;;2.30;;
9188;SDS011;34313;50.780;6.084;2023-03-23T06:10:20;5.67;;;2.20;;
9188;SDS011;34313;50.780;6.084;2023-03-23T06:12:46;3.13;;;2.20;;
9188;SDS011;34313;50.780;6.084;2023-03-23T06:15:11;3.30;;;2.20;;
9188;SDS011;34313;50.780;6.084;2023-03-23T06:17:37;2.33;;;1.70;;
9188;SDS011;34313;50.780;6.084;2023-03-23T06:20:03;6.27;;;2.10;;
9188;SDS011;34313;50.780;6.084;2023-03-23T06:22:35;5.33;;;2.23;;
9188;SDS011;34313;50.780;6.084;2023-03-23T06:25:01;2.40;;;1.80;;
9188;SDS011;34313;50.780;6.084;2023-03-23T06:27:26;5.13;;;1.90;;
9188;SDS011;34313;50.780;6.084;2023-03-23T06:29:51;2.80;;;1.50;;
9188;SDS011;34313;50.780;6.084;2023-03-23T06:32:17;3.67;;;1.57;;
9188;SDS011;34313;50.780;6.084;2023-03-23T06:34:43;3.80;;;1.63;;
9188;SDS011;34313;50.780;6.084;2023-03-23T06:37:09;4.87;;;1.90;;
9188;SDS011;34313;50.780;6.084;2023-03-23T06:39:36;4.47;;;1.67;;
9188;SDS011;34313;50.780;6.084;2023-03-23T06:42:03;2.67;;;1.67;;
9188;SDS011;34313;50.780;6.084;2023-03-23T06:44:28;3.87;;;1.77;;
9188;SDS011;34313;50.780;6.084;2023-03-23T06:46:54;5.87;;;2.13;;
9188;SDS011;34313;50.780;6.084;2023-03-23T06:49:19;3.17;;;1.80;;
9188;SDS011;34313;50.780;6.084;2023-03-23T06:51:45;2.70;;;1.40;;
9188;SDS011;34313;50.780;6.084;2023-03-23T06:54:10;7.67;;;1.90;;
9188;SDS011;34313;50.780;6.084;2023-03-23T06:56:36;3.13;;;1.70;;
9188;SDS011;34313;50.780;6.084;2023-03-23T06:59:01;3.87;;;1.77;;
9188;SDS011;34313;50.780;6.084;2023-03-23T07:01:28;2.33;;;1.40;;
9188;SDS011;34313;50.780;6.084;2023-03-23T07:03:54;2.30;;;1.47;;
9188;SDS011;34313;50.780;6.084;2023-03-23T07:06:20;2.87;;;1.60;;
9188;SDS011;34313;50.780;6.084;2023-03-23T07:08:46;3.63;;;2.07;;
9188;SDS011;34313;50.780;6.084;2023-03-23T07:11:11;2.70;;;1.70;;
9188;SDS011;34313;50.780;6.084;2023-03-23T07:13:37;1.77;;;1.37;;
9188;SDS011;34313;50.780;6.084;2023-03-23T07:16:04;4.13;;;1.83;;
9188;SDS011;34313;50.780;6.084;2023-03-23T07:18:31;4.03;;;1.67;;
9188;SDS011;34313;50.780;6.084;2023-03-23T07:20:57;4.70;;;1.93;;
9188;SDS011;34313;50.780;6.084;2023-03-23T07:23:22;1.80;;;1.47;;
9188;SDS011;34313;50.780;6.084;2023-03-23T07:25:47;4.10;;;1.50;;
9188;SDS011;34313;50.780;6.084;2023-03-23T07:28:13;5.37;;;1.43;;
9188;SDS011;34313;50.780;6.084;2023-03-23T07:30:39;5.20;;;1.63;;
9188;SDS011;34313;50.780;6.084;2023-03-23T07:33:06;4.23;;;1.90;;
9188;SDS011;34313;50.780;6.084;2023-03-23T07:35:33;6.53;;;1.73;;
9188;SDS011;34313;50.780;6.084;2023-03-23T07:37:59;1.87;;;1.67;;
9188;SDS011;34313;50.780;6.084;2023-03-23T07:40:25;4.30;;;1.50;;
9188;SDS011;34313;50.780;6.084;2023-03-23T07:42:57;3.80;;;1.60;;
9188;SDS011;34313;50.780;6.084;2023-03-23T07:45:22;5.50;;;1.87;;
9188;SDS011;34313;50.780;6.084;2023-03-23T07:47:48;2.57;;;1.63;;
9188;SDS011;34313;50.780;6.084;2023-03-23T07:50:13;4.40;;;1.80;;
9188;SDS011;34313;50.780;6.084;2023-03-23T07:52:39;4.73;;;1.60;;
9188;SDS011;34313;50.780;6.084;2023-03-23T07:55:06;8.87;;;1.80;;
9188;SDS011;34313;50.780;6.084;2023-03-23T07:57:33;5.27;;;1.80;;
9188;SDS011;34313;50.780;6.084;2023-03-23T07:59:59;2.87;;;1.10;;
9188;SDS011;34313;50.780;6.084;2023-03-23T08:02:25;5.90;;;1.70;;
9188;SDS011;34313;50.780;6.084;2023-03-23T08:04:51;5.10;;;2.17;;
9188;SDS011;34313;50.780;6.084;2023-03-23T08:07:18;7.33;;;1.60;;
9188;SDS011;34313;50.780;6.084;2023-03-23T08:09:44;3.17;;;1.40;;
9188;SDS011;34313;50.780;6.084;2023-03-23T08:12:11;6.33;;;1.87;;
9188;SDS011;34313;50.780;6.084;2023-03-23T08:14:37;4.60;;;1.70;;
9188;SDS011;34313;50.780;6.084;2023-03-23T08:17:03;7.60;;;1.77;;
9188;SDS011;34313;50.780;6.084;2023-03-23T08:19:29;3.03;;;1.53;;
9188;SDS011;34313;50.780;6.084;2023-03-23T08:21:54;3.60;;;1.47;;
9188;SDS011;34313;50.780;6.084;2023-03-23T08:24:19;4.10;;;2.10;;
9188;SDS011;34313;50.780;6.084;2023-03-23T08:26:45;5.13;;;1.47;;
9188;SDS011;34313;50.780;6.084;2023-03-23T08:29:11;4.30;;;1.60;;
9188;SDS011;34313;50.780;6.084;2023-03-23T08:31:38;4.73;;;1.60;;
9188;SDS011;34313;50.780;6.084;2023-03-23T08:34:04;5.43;;;1.97;;
9188;SDS011;34313;50.780;6.084;2023-03-23T08:36:33;9.17;;;2.03;;
9188;SDS011;34313;50.780;6.084;2023-03-23T08:38:59;5.27;;;1.60;;
9188;SDS011;34313;50.780;6.084;2023-03-23T08:41:24;4.33;;;1.33;;
9188;SDS011;34313;50.780;6.084;2023-03-23T08:43:50;3.07;;;1.70;;
9188;SDS011;34313;50.780;6.084;2023-03-23T08:46:17;3.43;;;1.50;;
9188;SDS011;34313;50.780;6.084;2023-03-23T08:48:44;2.60;;;1.30;;
9188;SDS011;34313;50.780;6.084;2023-03-23T08:51:10;4.03;;;1.60;;
9188;SDS011;34313;50.780;6.084;2023-03-23T08:53:35;4.73;;;1.90;;
9188;SDS011;34313;50.780;6.084;2023-03-23T08:56:05;4.87;;;1.60;;
9188;SDS011;34313;50.780;6.084;2023-03-23T08:58:32;3.37;;;1.40;;
9188;SDS011;34313;50.780;6.084;2023-03-23T09:00:59;4.40;;;1.60;;
9188;SDS011;34313;50.780;6.084;2023-03-23T09:03:25;4.60;;;1.90;;
9188;SDS011;34313;50.780;6.084;2023-03-23T09:05:50;1.40;;;1.30;;
9188;SDS011;34313;50.780;6.084;2023-03-23T09:08:15;4.50;;;1.37;;
9188;SDS011;34313;50.780;6.084;2023-03-23T09:10:41;4.97;;;1.37;;
9188;SDS011;34313;50.780;6.084;2023-03-23T09:13:06;2.87;;;1.50;;
9188;SDS011;34313;50.780;6.084;2023-03-23T09:15:31;4.50;;;1.60;;
9188;SDS011;34313;50.780;6.084;2023-03-23T09:17:57;2.93;;;1.17;;
9188;SDS011;34313;50.780;6.084;2023-03-23T09:20:24;3.17;;;1.37;;
9188;SDS011;34313;50.780;6.084;2023-03-23T09:22:51;3.00;;;1.50;;
9188;SDS011;34313;50.780;6.084;2023-03-23T09:25:20;5.87;;;1.70;;
9188;SDS011;34313;50.780;6.084;2023-03-23T09:27:50;7.43;;;2.23;;
9188;SDS011;34313;50.780;6.084;2023-03-23T09:30:19;2.27;;;1.30;;
9188;SDS011;34313;50.780;6.084;2023-03-23T09:32:45;3.97;;;1.30;;
9188;SDS011;34313;50.780;6.084;2023-03-23T09:35:13;2.90;;;1.47;;
9188;SDS011;34313;50.780;6.084;2023-03-23T09:37:41;3.30;;;0.93;;
9188;SDS011;34313;50.780;6.084;2023-03-23T09:40:13;2.70;;;1.43;;
9188;SDS011;34313;50.780;6.084;2023-03-23T09:51:51;4.90;;;1.43;;
9188;SDS011;34313;50.780;6.084;2023-03-23T09:54:21;1.37;;;1.00;;
9188;SDS011;34313;50.780;6.084;2023-03-23T09:56:51;1.90;;;1.20;;
9188;SDS011;34313;50.780;6.084;2023-03-23T09:59:19;2.43;;;1.00;;
9188;SDS011;34313;50.780;6.084;2023-03-23T10:01:50;3.17;;;1.20;;
9188;SDS011;34313;50.780;6.084;2023-03-23T10:06:52;1.53;;;1.27;;
9188;SDS011;34313;50.780;6.084;2023-03-23T10:09:21;3.30;;;1.43;;
9188;SDS011;34313;50.780;6.084;2023-03-23T10:11:50;2.93;;;1.17;;
9188;SDS011;34313;50.780;6.084;2023-03-23T10:14:31;2.23;;;1.00;;
9188;SDS011;34313;50.780;6.084;2023-03-23T10:17:13;2.30;;;1.10;;
9188;SDS011;34313;50.780;6.084;2023-03-23T10:22:26;2.53;;;1.50;;
9188;SDS011;34313;50.780;6.084;2023-03-23T10:25:02;3.07;;;0.83;;
9188;SDS011;34313;50.780;6.084;2023-03-23T10:27:45;2.37;;;1.27;;
9188;SDS011;34313;50.780;6.084;2023-03-23T10:30:46;1.30;;;1.10;;
9188;SDS011;34313;50.780;6.084;2023-03-23T10:33:58;3.93;;;1.10;;
9188;SDS011;34313;50.780;6.084;2023-03-23T10:36:27;2.03;;;1.03;;
9188;SDS011;34313;50.780;6.084;2023-03-23T10:39:06;2.23;;;1.10;;
9188;SDS011;34313;50.780;6.084;2023-03-23T10:41:37;1.80;;;1.00;;
9188;SDS011;34313;50.780;6.084;2023-03-23T10:44:09;4.93;;;1.93;;
9188;SDS011;34313;50.780;6.084;2023-03-23T10:49:20;2.33;;;0.83;;
9188;SDS011;34313;50.780;6.084;2023-03-23T10:52:50;2.43;;;1.10;;
9188;SDS011;34313;50.780;6.084;2023-03-23T10:55:19;2.10;;;1.07;;
9188;SDS011;34313;50.780;6.084;2023-03-23T10:58:04;2.50;;;1.23;;
9188;SDS011;34313;50.780;6.084;2023-03-23T11:00:41;2.30;;;1.03;;
9188;SDS011;34313;50.780;6.084;2023-03-23T11:05:43;1.33;;;0.97;;
9188;SDS011;34313;50.780;6.084;2023-03-23T11:08:27;1.03;;;0.93;;
9188;SDS011;34313;50.780;6.084;2023-03-23T11:11:07;1.37;;;1.00;;
9188;SDS011;34313;50.780;6.084;2023-03-23T11:13:44;2.77;;;1.00;;
9188;SDS011;34313;50.780;6.084;2023-03-23T11:16:22;1.60;;;0.87;;
9188;SDS011;34313;50.780;6.084;2023-03-23T11:18:56;1.63;;;0.90;;
9188;SDS011;34313;50.780;6.084;2023-03-23T11:21:23;2.70;;;1.30;;
9188;SDS011;34313;50.780;6.084;2023-03-23T11:23:50;2.23;;;1.10;;
9188;SDS011;34313;50.780;6.084;2023-03-23T11:26:28;2.23;;;1.53;;
9188;SDS011;34313;50.780;6.084;2023-03-23T11:29:03;3.67;;;1.27;;
9188;SDS011;34313;50.780;6.084;2023-03-23T11:31:32;1.50;;;1.10;;
9188;SDS011;34313;50.780;6.084;2023-03-23T11:34:01;3.27;;;1.20;;
9188;SDS011;34313;50.780;6.084;2023-03-23T11:36:40;1.73;;;1.23;;
9188;SDS011;34313;50.780;6.084;2023-03-23T11:41:54;4.13;;;1.40;;
9188;SDS011;34313;50.780;6.084;2023-03-23T11:44:22;8.33;;;1.57;;
9188;SDS011;34313;50.780;6.084;2023-03-23T11:50:00;2.83;;;1.40;;
9188;SDS011;34313;50.780;6.084;2023-03-23T11:55:31;2.73;;;1.47;;
9188;SDS011;34313;50.780;6.084;2023-03-23T11:58:03;3.00;;;1.80;;
9188;SDS011;34313;50.780;6.084;2023-03-23T12:00:35;6.23;;;2.00;;
9188;SDS011;34313;50.780;6.084;2023-03-23T12:03:05;2.93;;;1.90;;
9188;SDS011;34313;50.780;6.084;2023-03-23T12:05:45;3.50;;;1.57;;
9188;SDS011;34313;50.780;6.084;2023-03-23T12:10:54;2.50;;;1.27;;
9188;SDS011;34313;50.780;6.084;2023-03-23T12:24:10;2.23;;;1.53;;
9188;SDS011;34313;50.780;6.084;2023-03-23T12:27:00;4.10;;;1.60;;
9188;SDS011;34313;50.780;6.084;2023-03-23T12:32:44;5.33;;;2.00;;
9188;SDS011;34313;50.780;6.084;2023-03-23T12:35:27;2.67;;;1.50;;
9188;SDS011;34313;50.780;6.084;2023-03-23T12:38:05;2.50;;;1.40;;
9188;SDS011;34313;50.780;6.084;2023-03-23T12:40:57;4.60;;;1.60;;
9188;SDS011;34313;50.780;6.084;2023-03-23T12:51:48;2.90;;;1.60;;
9188;SDS011;34313;50.780;6.084;2023-03-23T12:54:23;2.73;;;1.83;;
9188;SDS011;34313;50.780;6.084;2023-03-23T13:07:52;2.67;;;1.63;;
9188;SDS011;34313;50.780;6.084;2023-03-23T13:10:27;7.00;;;2.17;;
9188;SDS011;34313;50.780;6.084;2023-03-23T13:12:54;7.53;;;1.83;;
9188;SDS011;34313;50.780;6.084;2023-03-23T13:20:58;5.43;;;3.20;;
9188;SDS011;34313;50.780;6.084;2023-03-23T13:26:05;4.37;;;2.00;;
9188;SDS011;34313;50.780;6.084;2023-03-23T13:28:47;7.77;;;2.23;;
9188;SDS011;34313;50.780;6.084;2023-03-23T13:31:16;4.10;;;1.70;;
9188;SDS011;34313;50.780;6.084;2023-03-23T13:33:50;7.03;;;1.83;;
9188;SDS011;34313;50.780;6.084;2023-03-23T13:36:18;5.90;;;2.57;;
9188;SDS011;34313;50.780;6.084;2023-03-23T13:38:54;5.43;;;2.07;;
9188;SDS011;34313;50.780;6.084;2023-03-23T13:41:22;7.30;;;1.73;;
9188;SDS011;34313;50.780;6.084;2023-03-23T13:43:48;4.20;;;1.70;;
9188;SDS011;34313;50.780;6.084;2023-03-23T13:51:52;6.23;;;1.90;;
9188;SDS011;34313;50.780;6.084;2023-03-23T13:56:56;4.90;;;1.90;;
9188;SDS011;34313;50.780;6.084;2023-03-23T14:01:52;4.03;;;1.87;;
9188;SDS011;34313;50.780;6.084;2023-03-23T14:04:19;3.63;;;1.70;;
9188;SDS011;34313;50.780;6.084;2023-03-23T14:06:48;3.60;;;1.80;;
9188;SDS011;34313;50.780;6.084;2023-03-23T14:09:16;6.83;;;2.30;;
9188;SDS011;34313;50.780;6.084;2023-03-23T14:11:48;5.20;;;1.93;;
9188;SDS011;34313;50.780;6.084;2023-03-23T14:14:28;3.60;;;1.50;;
9188;SDS011;34313;50.780;6.084;2023-03-23T14:17:19;3.17;;;1.80;;
9188;SDS011;34313;50.780;6.084;2023-03-23T14:19:46;5.03;;;1.70;;
9188;SDS011;34313;50.780;6.084;2023-03-23T14:22:17;6.27;;;1.97;;
9188;SDS011;34313;50.780;6.084;2023-03-23T14:24:44;4.50;;;1.70;;
9188;SDS011;34313;50.780;6.084;2023-03-23T14:27:12;5.63;;;1.90;;
9188;SDS011;34313;50.780;6.084;2023-03-23T14:29:40;3.13;;;1.90;;
9188;SDS011;34313;50.780;6.084;2023-03-23T14:32:07;6.87;;;1.83;;
9188;SDS011;34313;50.780;6.084;2023-03-23T14:34:36;6.80;;;1.60;;
9188;SDS011;34313;50.780;6.084;2023-03-23T14:37:02;4.20;;;1.70;;
9188;SDS011;34313;50.780;6.084;2023-03-23T14:39:31;3.73;;;1.80;;
9188;SDS011;34313;50.780;6.084;2023-03-23T14:42:02;4.20;;;2.07;;
9188;SDS011;34313;50.780;6.084;2023-03-23T14:44:32;4.03;;;1.53;;
9188;SDS011;34313;50.780;6.084;2023-03-23T14:47:03;7.60;;;1.73;;
9188;SDS011;34313;50.780;6.084;2023-03-23T14:49:32;2.00;;;1.50;;
9188;SDS011;34313;50.780;6.084;2023-03-23T14:52:08;4.10;;;1.90;;
9188;SDS011;34313;50.780;6.084;2023-03-23T14:54:35;3.20;;;2.00;;
9188;SDS011;34313;50.780;6.084;2023-03-23T14:57:10;3.40;;;1.83;;
9188;SDS011;34313;50.780;6.084;2023-03-23T14:59:41;6.63;;;1.90;;
9188;SDS011;34313;50.780;6.084;2023-03-23T15:02:12;3.40;;;1.70;;
9188;SDS011;34313;50.780;6.084;2023-03-23T15:04:42;2.97;;;1.43;;
9188;SDS011;34313;50.780;6.084;2023-03-23T15:07:10;5.10;;;2.20;;
9188;SDS011;34313;50.780;6.084;2023-03-23T15:09:40;6.33;;;1.93;;
9188;SDS011;34313;50.780;6.084;2023-03-23T15:12:09;3.67;;;1.70;;
9188;SDS011;34313;50.780;6.084;2023-03-23T15:14:47;4.50;;;1.63;;
9188;SDS011;34313;50.780;6.084;2023-03-23T15:17:22;4.33;;;1.70;;
9188;SDS011;34313;50.780;6.084;2023-03-23T15:19:50;4.47;;;1.93;;
9188;SDS011;34313;50.780;6.084;2023-03-23T15:22:26;6.30;;;1.90;;
9188;SDS011;34313;50.780;6.084;2023-03-23T15:27:58;4.13;;;1.87;;
9188;SDS011;34313;50.780;6.084;2023-03-23T15:30:46;7.23;;;2.03;;
9188;SDS011;34313;50.780;6.084;2023-03-23T15:33:13;4.10;;;2.20;;
9188;SDS011;34313;50.780;6.084;2023-03-23T15:35:46;3.60;;;1.90;;
9188;SDS011;34313;50.780;6.084;2023-03-23T15:38:26;6.60;;;1.87;;
9188;SDS011;34313;50.780;6.084;2023-03-23T15:40:57;7.00;;;2.10;;
9188;SDS011;34313;50.780;6.084;2023-03-23T15:43:34;5.53;;;1.97;;
9188;SDS011;34313;50.780;6.084;2023-03-23T15:48:30;5.93;;;2.50;;
9188;SDS011;34313;50.780;6.084;2023-03-23T15:50:57;3.50;;;1.70;;
9188;SDS011;34313;50.780;6.084;2023-03-23T15:55:53;6.37;;;1.70;;
9188;SDS011;34313;50.780;6.084;2023-03-23T15:58:20;4.70;;;1.80;;
9188;SDS011;34313;50.780;6.084;2023-03-23T16:00:45;6.17;;;2.50;;
9188;SDS011;34313;50.780;6.084;2023-03-23T16:03:19;9.10;;;1.80;;
9188;SDS011;34313;50.780;6.084;2023-03-23T16:05:51;5.60;;;1.73;;
9188;SDS011;34313;50.780;6.084;2023-03-23T16:08:17;3.30;;;1.87;;
9188;SDS011;34313;50.780;6.084;2023-03-23T16:10:42;7.93;;;1.77;;
9188;SDS011;34313;50.780;6.084;2023-03-23T16:13:08;9.50;;;3.03;;
9188;SDS011;34313;50.780;6.084;2023-03-23T16:15:33;7.63;;;2.20;;
9188;SDS011;34313;50.780;6.084;2023-03-23T16:17:58;12.07;;;2.80;;
9188;SDS011;34313;50.780;6.084;2023-03-23T16:20:24;3.83;;;1.80;;
9188;SDS011;34313;50.780;6.084;2023-03-23T16:22:50;5.07;;;1.87;;
9188;SDS011;34313;50.780;6.084;2023-03-23T16:25:16;5.93;;;2.23;;
9188;SDS011;34313;50.780;6.084;2023-03-23T16:27:43;8.73;;;2.27;;
9188;SDS011;34313;50.780;6.084;2023-03-23T16:30:17;2.70;;;1.90;;
9188;SDS011;34313;50.780;6.084;2023-03-23T16:32:50;4.87;;;2.10;;
9188;SDS011;34313;50.780;6.084;2023-03-23T16:35:16;9.33;;;3.10;;
9188;SDS011;34313;50.780;6.084;2023-03-23T16:37:44;6.87;;;2.40;;
9188;SDS011;34313;50.780;6.084;2023-03-23T16:40:10;5.83;;;2.10;;
9188;SDS011;34313;50.780;6.084;2023-03-23T16:42:37;5.27;;;2.40;;
9188;SDS011;34313;50.780;6.084;2023-03-23T16:45:02;4.60;;;1.83;;
9188;SDS011;34313;50.780;6.084;2023-03-23T16:47:27;3.50;;;2.00;;
9188;SDS011;34313;50.780;6.084;2023-03-23T16:49:53;3.03;;;1.60;;
9188;SDS011;34313;50.780;6.084;2023-03-23T16:52:18;6.10;;;2.47;;
9188;SDS011;34313;50.780;6.084;2023-03-23T16:54:44;5.57;;;2.10;;
9188;SDS011;34313;50.780;6.084;2023-03-23T16:57:10;6.17;;;2.07;;
9188;SDS011;34313;50.780;6.084;2023-03-23T16:59:35;4.07;;;2.50;;